Time;durP1;ratioP1;P1;durP2;ratioP2;P2;SDS_P1;SDS_P2;PMS_P1;PMS_P2;Temp;Humidity;BMP_temperature;BMP_pressure;BME280_temperature;BME280_humidity;BME280_pressure;Samples;Min_cycle;Max_cycle;Signal;HPM_P1;HPM_P2
2024/03/06 00:00:51;;;;;;;10.50;6.70;;;;;;;6.45;79.52;95202.00;110585;1275;22199;-73
2024/03/06 00:03:40;;;;;;;8.70;6.70;;;;;;;6.39;79.55;95199.45;110564;1275;23070;-70
2024/03/06 00:06:30;;;;;;;9.90;6.90;;;;;;;6.31;80.45;95201.43;110576;1275;22082;-70
2024/03/06 00:09:00;;;;;;;7.10;5.80;;;;;;;6.20;80.29;95203.27;110591;1275;22122;-70
2024/03/06 00:11:40;;;;;;;8.50;6.60;;;;;;;6.14;80.43;95205.95;110571;1275;22136;-70
2024/03/06 00:14:08;;;;;;;9.10;6.90;;;;;;;6.08;81.23;95205.63;110600;1275;22098;-70
2024/03/06 00:16:50;;;;;;;11.90;6.90;;;;;;;6.00;80.78;95208.31;110566;1275;22116;-70
2024/03/06 00:19:18;;;;;;;8.60;6.40;;;;;;;5.93;80.86;95215.15;110521;1275;22139;-70
2024/03/06 00:21:47;;;;;;;7.20;5.70;;;;;;;5.85;81.22;95211.16;110601;1275;22315;-70
2024/03/06 00:24:16;;;;;;;11.10;8.10;;;;;;;5.78;80.83;95215.92;110631;1274;22180;-70
2024/03/06 00:26:56;;;;;;;8.20;6.70;;;;;;;5.71;81.34;95218.23;110586;1275;22701;-70
2024/03/06 00:29:28;;;;;;;10.30;6.60;;;;;;;5.63;81.40;95217.08;110541;1275;22140;-70
2024/03/06 00:32:00;;;;;;;9.60;7.30;;;;;;;5.58;81.45;95224.77;110534;1275;22985;-70
2024/03/06 00:34:57;;;;;;;11.40;7.80;;;;;;;5.51;81.28;95223.94;110536;1275;22860;-70
2024/03/06 00:37:48;;;;;;;;;;;;;;;;;;;;;
2024/03/06 00:40:37;;;;;;;9.90;6.70;;;;;;;5.27;81.44;95229.62;110534;1275;22290;-70
2024/03/06 00:43:06;;;;;;;7.70;6.10;;;;;;;5.16;81.59;95230.88;110552;1263;22114;-70
2024/03/06 00:45:38;;;;;;;10.10;6.40;;;;;;;5.08;81.79;95234.40;110550;1275;22201;-70
2024/03/06 00:48:09;;;;;;;10.20;6.70;;;;;;;4.98;81.74;95235.30;110425;1275;23004;-70
2024/03/06 00:50:48;;;;;;;7.90;6.40;;;;;;;4.91;81.77;95239.50;110557;1275;22092;-71
2024/03/06 00:53:22;;;;;;;8.30;6.40;;;;;;;4.83;81.72;95240.04;110535;1275;22130;-70
2024/03/06 00:55:51;;;;;;;9.10;6.50;;;;;;;4.74;81.85;95241.80;110598;1275;22115;-71
2024/03/06 00:58:22;;;;;;;10.30;6.60;;;;;;;4.64;81.80;95236.59;110580;1275;22122;-70
2024/03/06 01:00:50;;;;;;;11.30;7.00;;;;;;;4.61;81.95;95236.61;110604;1275;22085;-70
2024/03/06 01:03:25;;;;;;;9.20;6.70;;;;;;;4.56;81.94;95237.65;110551;1275;22185;-70
2024/03/06 01:06:07;;;;;;;12.10;6.80;;;;;;;4.51;81.77;95238.35;110521;1275;22102;-70
2024/03/06 01:08:35;;;;;;;8.80;6.50;;;;;;;4.46;81.62;95236.09;110616;1275;22188;-71
2024/03/06 01:11:05;;;;;;;8.20;5.80;;;;;;;4.41;81.63;95235.23;110593;1275;22884;-71
2024/03/06 01:13:36;;;;;;;8.10;5.50;;;;;;;4.30;81.39;95237.48;110548;1275;22094;-70
2024/03/06 01:16:18;;;;;;;8.80;6.00;;;;;;;4.22;81.54;95241.84;110564;1275;22186;-70
2024/03/06 01:18:46;;;;;;;9.30;5.90;;;;;;;4.17;81.56;95242.02;110566;1275;22112;-70
2024/03/06 01:21:15;;;;;;;8.10;5.80;;;;;;;4.13;81.54;95243.94;110423;1275;22116;-70
2024/03/06 01:24:04;;;;;;;9.70;6.00;;;;;;;4.08;81.50;95246.19;110561;1275;22710;-70
2024/03/06 01:26:36;;;;;;;8.00;5.90;;;;;;;3.99;81.32;95244.10;110532;1272;22229;-70
2024/03/06 01:29:04;;;;;;;10.40;5.90;;;;;;;3.94;81.51;95248.61;110571;1275;22271;-70
2024/03/06 01:31:51;;;;;;;;;;;;;;;;;;;;;
2024/03/06 01:34:22;;;;;;;7.70;5.70;;;;;;;3.74;81.47;95253.45;110607;1275;22878;-70
2024/03/06 01:36:50;;;;;;;8.70;5.90;;;;;;;3.66;81.75;95253.95;110569;1275;22919;-70
2024/03/06 01:39:19;;;;;;;7.60;5.80;;;;;;;3.56;81.73;95254.27;110541;1275;22131;-70
2024/03/06 01:41:49;;;;;;;8.80;6.00;;;;;;;3.52;82.19;95257.38;110529;1275;22107;-70
2024/03/06 01:44:47;;;;;;;11.00;6.50;;;;;;;3.50;82.33;95258.95;110543;1275;22134;-70
2024/03/06 01:47:19;;;;;;;10.50;6.40;;;;;;;3.50;82.43;95259.98;110535;1275;22790;-70
2024/03/06 01:50:09;;;;;;;13.00;6.10;;;;;;;3.51;82.49;95258.25;110565;1275;22130;-70
2024/03/06 01:52:41;;;;;;;8.70;6.40;;;;;;;3.53;82.48;95263.99;110610;1275;22160;-70
2024/03/06 01:55:40;;;;;;;8.20;6.00;;;;;;;3.56;82.54;95264.53;110536;1275;22881;-70
2024/03/06 01:58:12;;;;;;;10.20;6.10;;;;;;;3.55;82.54;95266.27;110585;1275;22184;-70
2024/03/06 02:01:11;;;;;;;13.20;6.40;;;;;;;3.56;82.54;95266.78;110620;1274;22108;-70
2024/03/06 02:03:43;;;;;;;7.10;5.40;;;;;;;3.56;82.49;95267.48;110549;1275;22122;-70
2024/03/06 02:06:21;;;;;;;9.30;5.60;;;;;;;3.56;82.68;95263.48;110537;1275;22900;-70
2024/03/06 02:08:50;;;;;;;7.60;5.70;;;;;;;3.55;82.59;95266.61;110555;1275;22100;-70
2024/03/06 02:11:39;;;;;;;11.90;6.40;;;;;;;3.57;82.58;95261.92;110557;1275;22273;-70
2024/03/06 02:14:40;;;;;;;8.60;6.30;;;;;;;3.57;82.49;95265.23;110573;1275;22106;-70
2024/03/06 02:17:08;;;;;;;9.00;5.80;;;;;;;3.59;82.64;95266.29;110571;1275;22762;-70
2024/03/06 02:19:41;;;;;;;8.10;6.20;;;;;;;3.62;82.52;95273.77;110535;1275;22893;-70
2024/03/06 02:22:29;;;;;;;9.30;6.00;;;;;;;3.62;82.78;95271.16;110549;1274;22120;-70
2024/03/06 02:25:03;;;;;;;7.30;5.30;;;;;;;3.60;82.73;95273.94;110570;1275;22103;-70
2024/03/06 02:28:03;;;;;;;9.90;6.00;;;;;;;3.58;82.57;95273.05;110559;1275;22121;-70
2024/03/06 02:30:37;;;;;;;10.90;6.30;;;;;;;3.53;82.75;95268.86;110572;1275;22212;-70
2024/03/06 02:33:09;;;;;;;8.30;5.20;;;;;;;3.54;82.93;95268.17;110537;1274;22757;-70
2024/03/06 02:36:28;;;;;;;;;;;;;;;;;;;;;
2024/03/06 02:39:11;;;;;;;;;;;;;;;;;;;;;
2024/03/06 02:42:24;;;;;;;9.30;5.90;;;;;;;3.36;83.00;95266.02;110561;1275;22247;-70
2024/03/06 02:45:12;;;;;;;8.00;5.60;;;;;;;3.27;83.18;95275.90;110575;1275;22088;-70
2024/03/06 02:47:48;;;;;;;9.10;5.60;;;;;;;3.26;83.21;95276.23;110565;1275;22135;-70
2024/03/06 02:50:45;;;;;;;9.50;5.80;;;;;;;3.23;83.08;95278.31;110526;1275;22088;-70
2024/03/06 02:53:27;;;;;;;6.40;5.30;;;;;;;3.18;82.97;95283.15;110545;1275;22170;-70
2024/03/06 02:56:00;;;;;;;9.90;6.30;;;;;;;3.13;82.87;95282.27;110605;1275;22128;-73
2024/03/06 02:59:02;;;;;;;7.50;5.10;;;;;;;3.10;82.90;95285.89;110563;1267;22111;-70
2024/03/06 03:02:22;;;;;;;10.60;5.40;;;;;;;3.00;83.04;95285.67;110548;1275;22098;-70
2024/03/06 03:06:12;;;;;;;8.30;4.70;;;;;;;2.85;82.83;95285.73;110412;1275;22116;-70
2024/03/06 03:09:20;;;;;;;7.90;5.20;;;;;;;2.70;83.31;95287.41;110531;1269;22290;-70
2024/03/06 03:11:49;;;;;;;8.90;5.00;;;;;;;2.65;83.38;95288.58;110555;1275;22107;-70
2024/03/06 03:14:30;;;;;;;;;;;;;;;;;;;;;
2024/03/06 03:17:02;;;;;;;7.50;5.20;;;;;;;2.56;83.18;95291.30;110603;1275;22861;-73
2024/03/06 03:19:43;;;;;;;10.40;6.00;;;;;;;2.52;83.33;95293.17;110613;1275;22091;-70
2024/03/06 03:22:13;;;;;;;9.00;5.20;;;;;;;2.54;83.54;95294.91;110561;1275;22094;-70
2024/03/06 03:25:20;;;;;;;;;;;;;;;;;;;;;
2024/03/06 03:27:49;;;;;;;7.50;5.20;;;;;;;2.54;83.35;95300.66;110567;1275;22150;-70
2024/03/06 03:30:34;;;;;;;10.10;5.40;;;;;;;2.52;83.13;95303.60;110581;1275;22129;-70
2024/03/06 03:33:32;;;;;;;7.30;5.40;;;;;;;2.49;83.14;95305.98;110528;1275;22158;-70
2024/03/06 03:37:36;;;;;;;8.20;5.10;;;;;;;2.48;83.27;95306.67;110538;1275;22210;-70
2024/03/06 03:39:49;;;;;;;9.60;5.50;;;;;;;2.45;83.36;95309.43;110545;1275;22171;-70
2024/03/06 03:42:27;;;;;;;8.00;5.30;;;;;;;2.44;83.20;95316.55;110570;1275;22251;-70
2024/03/06 03:44:56;;;;;;;8.00;5.00;;;;;;;2.41;83.09;95320.17;110594;1275;22187;-70
2024/03/06 03:47:45;;;;;;;8.50;4.70;;;;;;;2.36;82.97;95319.42;110575;1275;22295;-70
2024/03/06 03:50:19;;;;;;;8.50;5.50;;;;;;;2.29;83.00;95331.69;110581;1275;22277;-70
2024/03/06 03:53:11;;;;;;;8.50;5.80;;;;;;;2.25;83.42;95329.38;110564;1275;22111;-70
2024/03/06 03:55:42;;;;;;;8.00;4.90;;;;;;;2.20;83.32;95329.52;110587;1275;22199;-70
2024/03/06 03:58:45;;;;;;;9.30;5.10;;;;;;;2.19;83.50;95334.02;110591;1275;22813;-70
2024/03/06 04:01:15;;;;;;;6.70;4.80;;;;;;;2.14;83.44;95335.03;110564;1274;22210;-70
2024/03/06 04:04:09;;;;;;;8.70;5.80;;;;;;;2.11;83.55;95337.77;110602;1275;22120;-70
2024/03/06 04:06:40;;;;;;;7.80;5.20;;;;;;;2.08;83.87;95334.45;110465;1275;22183;-70
2024/03/06 04:09:40;;;;;;;;;;;;;;;;;;;;;
2024/03/06 04:12:34;;;;;;;8.50;5.10;;;;;;;2.03;83.74;95335.96;110582;1275;22168;-69
2024/03/06 04:15:09;;;;;;;7.20;5.30;;;;;;;2.01;84.24;95338.55;110575;1275;22101;-70
2024/03/06 04:17:40;;;;;;;6.90;5.00;;;;;;;2.03;84.18;95339.25;110566;1275;22099;-69
2024/03/06 04:21:05;;;;;;;7.90;5.50;;;;;;;2.04;84.06;95341.17;110544;1275;22238;-70
2024/03/06 04:24:00;;;;;;;9.60;5.50;;;;;;;2.08;84.30;95342.42;110562;1275;22951;-69
2024/03/06 04:27:16;;;;;;;7.00;5.40;;;;;;;2.09;84.07;95343.48;110572;1275;22872;-69
2024/03/06 04:30:09;;;;;;;6.80;4.70;;;;;;;2.04;84.14;95343.61;110582;1275;22111;-70
2024/03/06 04:33:02;;;;;;;8.80;4.80;;;;;;;2.02;83.98;95341.51;110589;1275;22134;-70
2024/03/06 04:35:44;;;;;;;;;;;;;;;2.02;83.96;95343.42;110578;1275;22264;-71
2024/03/06 04:38:33;;;;;;;6.10;4.40;;;;;;;2.02;84.03;95342.20;110564;1275;22930;-71
2024/03/06 04:41:36;;;;;;;9.10;5.50;;;;;;;2.02;84.01;95343.59;110544;1275;22100;-74
2024/03/06 04:44:34;;;;;;;8.70;5.30;;;;;;;2.01;83.85;95345.98;110587;1267;22142;-71
2024/03/06 04:47:34;;;;;;;8.10;5.30;;;;;;;2.01;83.87;95348.27;110578;1275;22403;-70
2024/03/06 04:50:49;;;;;;;;;;;;;;;;;;;;;
2024/03/06 04:53:21;;;;;;;7.20;4.80;;;;;;;2.05;84.13;95349.52;110588;1275;22894;-70
2024/03/06 04:56:12;;;;;;;10.00;6.20;;;;;;;2.10;84.20;95350.60;110551;1275;22261;-70
2024/03/06 04:59:04;;;;;;;8.20;5.50;;;;;;;2.14;84.04;95348.90;110564;1275;22120;-70
2024/03/06 05:01:47;;;;;;;;;;;;;;;;;;;;;
2024/03/06 05:05:08;;;;;;;8.10;5.00;;;;;;;2.23;84.03;95351.24;110591;1275;22091;-70
2024/03/06 05:07:57;;;;;;;8.90;4.80;;;;;;;2.25;84.67;95349.89;110564;1275;22950;-70
2024/03/06 05:10:51;;;;;;;8.70;5.70;;;;;;;2.27;84.41;95346.06;110562;1275;22136;-71
2024/03/06 05:13:53;;;;;;;8.70;6.00;;;;;;;2.32;84.45;95348.21;110568;1275;22846;-70
2024/03/06 05:16:59;;;;;;;7.30;4.90;;;;;;;2.34;84.46;95346.51;110546;1275;22109;-71
2024/03/06 05:20:09;;;;;;;8.50;5.90;;;;;;;2.34;85.35;95347.35;110565;1275;22136;-70
2024/03/06 05:23:01;;;;;;;11.00;5.50;;;;;;;2.34;85.57;95349.80;110553;1275;22141;-70
2024/03/06 05:26:11;;;;;;;7.70;5.70;;;;;;;2.35;85.73;95353.10;110562;1274;22102;-70
2024/03/06 05:29:57;;;;;;;9.90;5.50;;;;;;;2.42;85.56;95353.50;110568;1275;22126;-70
2024/03/06 05:33:05;;;;;;;;;;;;;;;2.46;86.54;95351.45;110592;1275;22815;-70
2024/03/06 05:36:14;;;;;;;11.30;6.80;;;;;;;2.46;86.31;95352.33;110569;1274;22174;-71
2024/03/06 05:39:15;;;;;;;11.60;6.80;;;;;;;2.51;86.80;95358.96;110573;1275;22131;-70
2024/03/06 05:42:46;;;;;;;7.20;5.40;;;;;;;2.55;86.80;95363.51;110578;1275;22131;-71
2024/03/06 05:45:57;;;;;;;8.20;5.10;;;;;;;2.61;86.92;95364.60;110573;1275;22884;-70
2024/03/06 05:49:09;;;;;;;;;;;;;;;;;;;;;
2024/03/06 05:52:21;;;;;;;18.90;12.90;;;;;;;2.67;87.54;95371.42;110551;1275;22159;-70
2024/03/06 05:55:10;;;;;;;24.60;16.50;;;;;;;2.73;87.43;95368.70;110601;1275;23236;-70
2024/03/06 05:58:28;;;;;;;21.40;13.30;;;;;;;2.83;87.33;95371.55;110546;1275;22162;-71
2024/03/06 06:01:13;;;;;;;18.50;11.40;;;;;;;2.89;87.49;95374.91;110593;1275;22225;-71
2024/03/06 06:04:02;;;;;;;28.60;13.20;;;;;;;2.92;87.41;95375.09;110481;1275;22946;-71
2024/03/06 06:06:38;;;;;;;23.30;13.50;;;;;;;2.94;86.80;95374.41;110322;1276;22196;-71
2024/03/06 06:09:51;;;;;;;28.00;15.30;;;;;;;2.96;86.81;95374.78;110410;1276;22307;-72
2024/03/06 06:12:22;;;;;;;30.30;15.20;;;;;;;3.00;86.71;95372.02;110423;1276;22086;-71
2024/03/06 06:15:03;;;;;;;;;;;;;;;;;;;;;
2024/03/06 06:17:35;;;;;;;30.50;19.00;;;;;;;3.20;86.97;95372.67;110374;1276;22172;-72
2024/03/06 06:23:35;;;;;;;;;;;;;;;;;;;;;
2024/03/06 06:26:17;;;;;;;32.50;20.20;;;;;;;3.66;86.67;95365.79;110437;1276;22183;-71
2024/03/06 06:28:48;;;;;;;29.40;18.70;;;;;;;3.78;86.11;95360.45;110413;1276;22291;-71
2024/03/06 06:31:28;;;;;;;24.40;16.60;;;;;;;3.87;85.67;95362.55;110425;1276;22696;-71
2024/03/06 06:34:37;;;;;;;25.40;15.50;;;;;;;3.94;85.39;95361.55;110427;1276;22570;-71
2024/03/06 06:37:07;;;;;;;25.10;16.40;;;;;;;4.02;85.40;95358.27;110431;1276;22131;-74
2024/03/06 06:40:09;;;;;;;21.80;14.70;;;;;;;4.10;85.31;95357.94;110351;1276;22700;-71
2024/03/06 06:42:55;;;;;;;173.00;72.70;;;;;;;4.18;84.39;95352.20;110301;1276;22089;-71
2024/03/06 06:45:26;;;;;;;51.90;30.20;;;;;;;4.24;84.27;95350.83;110430;1276;22091;-71
2024/03/06 06:47:55;;;;;;;59.40;33.90;;;;;;;4.31;84.09;95349.45;110418;1276;22136;-71
2024/03/06 06:50:30;;;;;;;45.90;27.60;;;;;;;4.42;84.10;95344.94;110431;1276;22122;-71
2024/03/06 06:53:01;;;;;;;53.10;28.50;;;;;;;4.51;84.34;95344.77;110368;1276;22260;-72
2024/03/06 06:55:50;;;;;;;39.20;26.20;;;;;;;4.62;84.50;95343.04;110421;1276;22130;-71
2024/03/06 06:58:26;;;;;;;34.50;20.30;;;;;;;4.75;84.61;95346.69;110437;1276;22177;-71
2024/03/06 07:01:07;;;;;;;22.70;15.50;;;;;;;4.88;84.26;95350.35;110194;1276;22116;-71
2024/03/06 07:03:42;;;;;;;24.40;15.60;;;;;;;4.99;84.17;95345.10;110447;1276;22134;-71
2024/03/06 07:06:27;;;;;;;25.30;15.50;;;;;;;5.13;83.51;95348.77;110431;1276;22208;-72
2024/03/06 07:08:59;;;;;;;23.10;15.20;;;;;;;5.24;82.74;95351.02;110455;1276;23083;-74
2024/03/06 07:11:43;;;;;;;;;;;;;;;;;;;;;
2024/03/06 07:14:22;;;;;;;21.90;13.90;;;;;;;5.60;82.48;95350.38;110352;1276;22215;-72
2024/03/06 07:16:53;;;;;;;15.70;10.70;;;;;;;5.81;82.13;95350.30;110415;1276;22139;-71
2024/03/06 07:19:21;;;;;;;14.30;9.40;;;;;;;6.05;81.86;95346.56;110340;1276;23021;-71
2024/03/06 07:21:50;;;;;;;13.80;8.40;;;;;;;6.29;80.52;95341.37;110314;1276;22752;-71
2024/03/06 07:24:19;;;;;;;15.10;8.80;;;;;;;6.54;79.68;95339.46;110316;1276;22329;-74
2024/03/06 07:27:11;;;;;;;19.40;10.50;;;;;;;6.73;78.50;95336.52;110448;1276;22083;-71
2024/03/06 07:29:40;;;;;;;14.00;10.00;;;;;;;6.87;77.51;95338.50;110461;1276;22934;-72
2024/03/06 07:32:09;;;;;;;20.00;10.90;;;;;;;7.00;78.56;95338.23;110463;1276;22169;-71
2024/03/06 07:34:58;;;;;;;15.40;9.40;;;;;;;7.12;78.11;95337.41;110457;1276;22213;-74
2024/03/06 07:37:47;;;;;;;18.20;10.70;;;;;;;7.28;78.44;95338.82;110425;1276;22201;-74
2024/03/06 07:40:16;;;;;;;20.90;13.10;;;;;;;7.50;77.79;95340.88;110449;1276;22955;-72
2024/03/06 07:42:48;;;;;;;20.40;14.10;;;;;;;7.65;77.41;95339.33;110471;1276;22103;-71
2024/03/06 07:45:20;;;;;;;25.30;12.70;;;;;;;7.76;77.12;95335.85;110447;1276;22081;-71
2024/03/06 07:47:48;;;;;;;26.40;12.10;;;;;;;7.91;77.06;95336.91;110444;1274;22132;-71
2024/03/06 07:50:18;;;;;;;14.20;10.00;;;;;;;8.04;76.87;95334.98;110454;1276;22205;-71
2024/03/06 07:52:59;;;;;;;17.10;11.60;;;;;;;8.21;76.02;95337.05;110440;1276;22214;-74
2024/03/06 07:55:28;;;;;;;18.60;11.50;;;;;;;8.39;74.86;95325.93;105817;1276;6043788;-75
2024/03/06 07:58:09;;;;;;;22.90;15.50;;;;;;;8.65;74.48;95328.55;110399;1276;22350;-75
2024/03/06 08:00:38;;;;;;;14.70;10.80;;;;;;;8.91;73.73;95320.95;110410;1276;22273;-72
2024/03/06 08:03:06;;;;;;;22.80;12.20;;;;;;;9.15;74.03;95318.96;110268;1276;22924;-73
2024/03/06 08:05:34;;;;;;;17.60;11.40;;;;;;;9.38;74.04;95312.40;110457;1276;22892;-73
2024/03/06 08:08:03;;;;;;;19.30;11.50;;;;;;;9.60;72.82;95315.84;110364;1276;22328;-73
2024/03/06 08:10:33;;;;;;;15.90;9.00;;;;;;;9.83;72.68;95317.49;110388;1276;22259;-73
2024/03/06 08:13:03;;;;;;;14.60;8.40;;;;;;;10.03;72.00;95316.58;110445;1276;22960;-74
2024/03/06 08:15:33;;;;;;;8.90;6.10;;;;;;;10.16;68.43;95308.73;110340;1276;22174;-75
2024/03/06 08:18:05;;;;;;;7.80;6.10;;;;;;;10.17;65.68;95314.52;110382;1268;22178;-73
2024/03/06 08:20:33;;;;;;;8.10;5.80;;;;;;;10.21;65.58;95313.92;110407;1276;22190;-75
2024/03/06 08:23:01;;;;;;;7.20;5.50;;;;;;;10.30;66.10;95317.23;110424;1276;22116;-72
2024/03/06 08:25:32;;;;;;;8.60;5.20;;;;;;;10.34;65.65;95313.46;110446;1275;22319;-72
2024/03/06 08:28:00;;;;;;;7.70;5.80;;;;;;;10.35;64.32;95315.73;110427;1276;22831;-72
2024/03/06 08:30:28;;;;;;;7.00;4.90;;;;;;;10.33;63.93;95318.94;110449;1276;22149;-75
2024/03/06 08:32:55;;;;;;;8.00;6.00;;;;;;;10.33;63.67;95319.13;110440;1276;22115;-72
2024/03/06 08:35:26;;;;;;;12.90;5.90;;;;;;;10.34;63.87;95320.86;110455;1276;22169;-73
2024/03/06 08:37:53;;;;;;;8.30;5.20;;;;;;;10.36;63.11;95316.96;110526;1276;22153;-71
2024/03/06 08:40:21;;;;;;;8.20;6.00;;;;;;;10.33;60.78;95318.95;110435;1276;22349;-72
2024/03/06 08:42:49;;;;;;;7.20;5.30;;;;;;;10.37;60.97;95321.84;110430;1276;22211;-73
2024/03/06 08:45:18;;;;;;;9.00;5.10;;;;;;;10.35;59.36;95324.89;110337;1276;22152;-74
2024/03/06 08:47:48;;;;;;;5.60;3.60;;;;;;;10.35;59.84;95327.34;110330;1276;22111;-74
2024/03/06 08:50:16;;;;;;;9.90;5.70;;;;;;;10.27;59.10;95329.09;110354;1276;22287;-72
2024/03/06 08:52:45;;;;;;;6.60;3.10;;;;;;;10.31;60.18;95328.66;110191;1276;22225;-74
2024/03/06 08:55:13;;;;;;;5.80;3.80;;;;;;;10.30;59.85;95331.14;110346;1276;22180;-72
2024/03/06 08:57:41;;;;;;;8.80;5.40;;;;;;;10.30;60.19;95330.62;110277;1276;22317;-73
2024/03/06 09:00:12;;;;;;;6.20;3.80;;;;;;;10.22;59.08;95335.85;110448;1276;22098;-72
2024/03/06 09:02:42;;;;;;;11.70;8.10;;;;;;;10.19;59.44;95343.48;110469;1276;22163;-72
2024/03/06 09:05:12;;;;;;;13.60;8.50;;;;;;;10.17;59.76;95348.42;110263;1275;22085;-73
2024/03/06 09:07:41;;;;;;;5.60;3.20;;;;;;;10.19;59.51;95351.05;110457;1276;23054;-73
2024/03/06 09:10:09;;;;;;;12.20;8.70;;;;;;;10.15;59.27;95351.82;110507;1276;22172;-73
2024/03/06 09:12:37;;;;;;;5.70;4.50;;;;;;;10.15;58.91;95352.70;110323;1276;22210;-75
2024/03/06 09:15:07;;;;;;;6.50;4.10;;;;;;;10.19;59.67;95352.97;110418;1276;22122;-73
2024/03/06 09:17:34;;;;;;;6.50;3.80;;;;;;;10.26;60.25;95358.28;110265;1276;22672;-72
2024/03/06 09:20:09;;;;;;;8.70;6.10;;;;;;;10.24;59.41;95357.27;110418;1276;22165;-75
2024/03/06 09:22:42;;;;;;;6.30;4.60;;;;;;;10.23;59.78;95364.33;110226;1269;22371;-75
2024/03/06 09:25:12;;;;;;;4.60;3.80;;;;;;;10.22;61.00;95368.20;110435;1276;22187;-76
2024/03/06 09:27:40;;;;;;;7.00;4.30;;;;;;;10.24;61.72;95367.10;110427;1276;22144;-74
2024/03/06 09:30:08;;;;;;;6.10;3.90;;;;;;;10.21;62.54;95371.05;110433;1276;22777;-74
2024/03/06 09:32:38;;;;;;;6.30;4.10;;;;;;;10.19;63.65;95379.33;110331;1276;22203;-72
2024/03/06 09:35:06;;;;;;;7.40;4.20;;;;;;;10.15;63.86;95382.05;110330;1276;22105;-72
2024/03/06 09:37:34;;;;;;;6.90;5.40;;;;;;;10.16;64.31;95384.66;110280;1276;23152;-72
2024/03/06 09:40:03;;;;;;;8.30;4.30;;;;;;;10.09;64.29;95387.09;110266;1271;22237;-71
2024/03/06 09:42:30;;;;;;;5.90;4.30;;;;;;;9.97;65.62;95386.28;110289;1277;22238;-74
2024/03/06 09:44:57;;;;;;;7.80;4.50;;;;;;;9.97;66.08;95383.09;110276;1276;22120;-72
2024/03/06 09:47:31;;;;;;;8.70;4.90;;;;;;;9.98;66.58;95383.09;110280;1276;22452;-73
2024/03/06 09:50:03;;;;;;;;;;;;;;;9.93;66.30;95379.14;110208;1277;22392;-75
2024/03/06 09:52:31;;;;;;;6.10;4.70;;;;;;;9.85;67.04;95381.23;110234;1277;22339;-73
2024/03/06 09:55:00;;;;;;;9.80;5.70;;;;;;;9.72;65.97;95380.77;110231;1277;22111;-73
2024/03/06 09:57:28;;;;;;;9.60;5.70;;;;;;;9.66;66.38;95383.17;110232;1277;23034;-75
2024/03/06 09:59:55;;;;;;;8.00;5.00;;;;;;;9.62;66.85;95379.02;110199;1277;22139;-73
2024/03/06 10:02:37;;;;;;;8.10;6.10;;;;;;;9.59;67.27;95378.20;110219;1277;22865;-72
2024/03/06 10:05:06;;;;;;;7.40;5.50;;;;;;;9.55;67.29;95376.54;110230;1277;22283;-73
2024/03/06 10:07:34;;;;;;;8.40;5.60;;;;;;;9.53;67.66;95375.15;110249;1277;22375;-73
2024/03/06 10:10:05;;;;;;;7.10;5.50;;;;;;;9.59;68.86;95375.76;110270;1277;22078;-72
2024/03/06 10:12:35;;;;;;;10.20;5.70;;;;;;;9.70;69.09;95376.77;110267;1277;22316;-72
2024/03/06 10:15:04;;;;;;;9.40;6.90;;;;;;;9.78;68.77;95372.41;110250;1277;22768;-73
2024/03/06 10:17:31;;;;;;;9.10;6.30;;;;;;;9.85;67.89;95366.48;110257;1277;22123;-72
2024/03/06 10:20:01;;;;;;;11.20;7.20;;;;;;;9.93;67.05;95368.26;110257;1277;22905;-72
2024/03/06 10:22:29;;;;;;;17.50;10.40;;;;;;;10.00;66.20;95369.71;110268;1277;22117;-72
2024/03/06 10:24:57;;;;;;;16.10;10.70;;;;;;;10.02;65.82;95371.41;110229;1277;22206;-73
2024/03/06 10:27:27;;;;;;;39.80;23.10;;;;;;;10.04;65.24;95370.48;110227;1277;22743;-73
2024/03/06 10:30:06;;;;;;;25.20;16.60;;;;;;;10.03;65.00;95368.59;110117;1277;22178;-73
2024/03/06 10:32:33;;;;;;;43.30;26.30;;;;;;;9.98;64.58;95366.76;110243;1266;22183;-73
2024/03/06 10:35:01;;;;;;;41.80;22.40;;;;;;;9.98;64.80;95368.69;110276;1277;22116;-72
2024/03/06 10:37:29;;;;;;;33.30;15.90;;;;;;;10.00;64.45;95368.13;110269;1277;22116;-72
2024/03/06 10:40:05;;;;;;;37.90;17.10;;;;;;;10.04;64.73;95371.55;110273;1277;22776;-73
2024/03/06 10:42:36;;;;;;;28.30;15.30;;;;;;;10.06;64.16;95369.93;110111;1276;22201;-72
2024/03/06 10:45:05;;;;;;;22.30;11.20;;;;;;;10.03;63.95;95371.58;110267;1277;22938;-72
2024/03/06 10:47:33;;;;;;;14.90;9.10;;;;;;;10.06;64.15;95372.39;110243;1277;22982;-72
2024/03/06 10:50:04;;;;;;;15.80;9.80;;;;;;;10.14;64.24;95374.50;110291;1277;22829;-72
2024/03/06 10:52:33;;;;;;;23.00;11.50;;;;;;;10.25;64.14;95367.79;110089;1277;22170;-73
2024/03/06 10:55:02;;;;;;;18.50;11.20;;;;;;;10.26;64.22;95372.18;110285;1276;22138;-72
2024/03/06 10:57:30;;;;;;;22.40;14.10;;;;;;;10.25;64.54;95373.07;110221;1277;22751;-72
2024/03/06 10:59:59;;;;;;;16.80;10.10;;;;;;;10.26;64.56;95373.77;110252;1277;22978;-72
2024/03/06 11:02:32;;;;;;;18.40;10.50;;;;;;;10.28;64.43;95369.69;110275;1277;22080;-72
2024/03/06 11:04:59;;;;;;;20.20;10.50;;;;;;;10.42;64.37;95364.82;110284;1277;22847;-72
2024/03/06 11:07:27;;;;;;;26.80;14.60;;;;;;;10.65;64.00;95356.40;110284;1277;22119;-72
2024/03/06 11:09:59;;;;;;;9.10;6.30;;;;;;;10.79;63.73;95359.42;110297;1277;22136;-72
2024/03/06 11:12:38;;;;;;;14.10;8.10;;;;;;;10.70;63.79;95354.52;110300;1277;22195;-72
2024/03/06 11:15:25;;;;;;;17.20;9.60;;;;;;;10.62;63.77;95359.47;110268;1277;22089;-72
2024/03/06 11:17:54;;;;;;;18.60;10.20;;;;;;;10.49;64.01;95361.68;110291;1277;22130;-72
2024/03/06 11:20:25;;;;;;;15.00;9.00;;;;;;;10.45;64.28;95357.73;110229;1277;22115;-72
2024/03/06 11:22:55;;;;;;;20.00;10.70;;;;;;;10.37;63.67;95361.05;110244;1277;22128;-72
2024/03/06 11:25:48;;;;;;;19.20;10.50;;;;;;;10.25;64.22;95368.32;110234;1277;22821;-72
2024/03/06 11:28:32;;;;;;;16.50;9.20;;;;;;;10.18;64.61;95366.17;110318;1277;22195;-73
2024/03/06 11:30:59;;;;;;;9.90;6.70;;;;;;;10.15;64.89;95365.54;110286;1276;22190;-72
2024/03/06 11:33:40;;;;;;;8.90;5.90;;;;;;;10.11;64.71;95367.02;110298;1277;22106;-72
2024/03/06 11:36:25;;;;;;;14.70;6.90;;;;;;;10.05;65.34;95366.95;110095;1277;22095;-72
2024/03/06 11:39:00;;;;;;;12.20;6.80;;;;;;;10.05;65.14;95365.04;110253;1277;22872;-72
2024/03/06 11:41:30;;;;;;;18.90;9.70;;;;;;;10.03;64.76;95359.63;110306;1276;22777;-72
2024/03/06 11:44:01;;;;;;;11.90;7.10;;;;;;;9.97;65.31;95358.17;110289;1277;22093;-72
2024/03/06 11:46:49;;;;;;;9.60;5.60;;;;;;;9.97;65.31;95358.52;110232;1277;22110;-72
2024/03/06 11:49:21;;;;;;;13.30;6.20;;;;;;;9.89;65.26;95357.99;110284;1277;23085;-73
2024/03/06 11:51:49;;;;;;;10.20;5.20;;;;;;;9.87;65.27;95356.06;110271;1277;22871;-72
2024/03/06 11:54:24;;;;;;;11.10;6.00;;;;;;;9.86;64.79;95350.65;110274;1277;22111;-73
2024/03/06 11:56:53;;;;;;;11.80;6.60;;;;;;;9.85;64.91;95344.53;110103;1276;22117;-73
2024/03/06 11:59:25;;;;;;;7.80;5.70;;;;;;;9.85;65.07;95341.02;110238;1277;22089;-72
2024/03/06 12:02:04;;;;;;;11.00;7.10;;;;;;;9.85;65.11;95336.62;110101;1277;22171;-72
2024/03/06 12:04:39;;;;;;;8.60;6.10;;;;;;;9.84;65.04;95333.48;110263;1277;22089;-73
2024/03/06 12:07:08;;;;;;;10.40;6.80;;;;;;;9.82;65.11;95329.48;110310;1277;22176;-73
2024/03/06 12:09:41;;;;;;;7.40;5.60;;;;;;;9.85;65.17;95326.78;110096;1277;22258;-72
2024/03/06 12:12:10;;;;;;;;;;;;;;;9.84;64.71;95324.16;110315;1277;22392;-73
2024/03/06 12:14:42;;;;;;;12.70;7.70;;;;;;;9.80;64.97;95319.48;110294;1277;22119;-72
2024/03/06 12:17:16;;;;;;;10.60;7.40;;;;;;;9.82;65.25;95315.95;110282;1277;22749;-73
2024/03/06 12:19:45;;;;;;;11.50;6.70;;;;;;;9.84;65.33;95316.09;110240;1277;22272;-73
2024/03/06 12:22:18;;;;;;;7.20;5.40;;;;;;;9.88;65.56;95313.55;110276;1277;22845;-73
2024/03/06 12:24:46;;;;;;;8.10;5.10;;;;;;;9.95;66.34;95305.48;110282;1277;22148;-73
2024/03/06 12:27:14;;;;;;;8.40;5.50;;;;;;;10.03;66.80;95304.11;110302;1277;22873;-73
2024/03/06 12:29:41;;;;;;;7.90;5.70;;;;;;;10.15;66.63;95297.15;110281;1277;22091;-73
2024/03/06 12:32:17;;;;;;;8.90;5.70;;;;;;;10.25;66.38;95290.44;110282;1277;22821;-73
2024/03/06 12:35:02;;;;;;;8.40;4.90;;;;;;;10.34;66.14;95288.52;110228;1277;22072;-72
2024/03/06 12:37:31;;;;;;;9.30;4.90;;;;;;;10.50;66.61;95286.22;110302;1277;22879;-73
2024/03/06 12:39:59;;;;;;;10.30;4.90;;;;;;;10.70;66.73;95285.91;110083;1276;22362;-72
2024/03/06 12:42:35;;;;;;;21.40;12.90;;;;;;;11.09;66.67;95286.52;110285;1276;22191;-72
2024/03/06 12:45:03;;;;;;;12.00;6.00;;;;;;;11.66;65.04;95288.73;110225;1276;22135;-72